Time,TemperatureF,DewpointF,PressureIn,WindDirection,WindDirectionDegrees,WindSpeedMPH,WindSpeedGustMPH,Humidity,HourlyPrecipIn,Conditions,Clouds,dailyrainin,SoftwareType,DateUTC
2013-05-05 00:04:00,37.4,36.4,29.85,ESE,112,0.0,0.0,96,0.00,RA,,0.00,WeatherDisplay:10.37,2013-05-05 08:04:00,
2013-05-05 00:09:00,37.4,36.4,29.85,ESE,112,0.0,0.0,96,0.00,RA,,0.00,WeatherDisplay:10.37,2013-05-05 08:09:00,
2013-05-05 00:14:00,37.4,36.4,29.85,ESE,112,0.0,0.0,96,0.00,CLR,,0.00,WeatherDisplay:10.37,2013-05-05 08:14:00,
2013-05-05 00:19:00,37.2,36.2,29.85,ESE,112,0.0,0.0,96,0.00,CLR,,0.00,WeatherDisplay:10.37,2013-05-05 08:19:00,
2013-05-05 00:24:00,37.2,36.2,29.85,ESE,112,0.0,0.0,96,0.00,CLR,,0.00,WeatherDisplay:10.37,2013-05-05 08:24:00,
2013-05-05 00:29:00,37.2,36.2,29.85,ESE,112,0.0,0.0,96,0.00,CLR,,0.00,WeatherDisplay:10.37,2013-05-05 08:29:00,
2013-05-05 00:34:00,37.2,36.2,29.85,ESE,112,0.0,0.0,96,0.00,CLR,,0.00,WeatherDisplay:10.37,2013-05-05 08:34:00,
2013-05-05 00:39:00,37.0,36.0,29.85,ESE,112,0.0,0.0,96,0.00,CLR,,0.00,WeatherDisplay:10.37,2013-05-05 08:39:00,
2013-05-05 00:44:00,37.4,36.4,29.85,ESE,112,0.0,0.0,96,0.00,CLR,,0.00,WeatherDisplay:10.37,2013-05-05 08:44:00,
2013-05-05 00:49:00,37.4,36.4,29.85,SSW,202,0.0,0.0,96,0.00,CLR,,0.00,WeatherDisplay:10.37,2013-05-05 08:49:00,
2013-05-05 00:54:00,37.2,36.4,29.85,ESE,112,0.0,0.0,97,0.00,CLR,,0.00,WeatherDisplay:10.37,2013-05-05 08:54:00,
2013-05-05 00:59:00,37.2,36.2,29.88,ESE,112,0.0,0.0,96,0.00,CLR,,0.00,WeatherDisplay:10.37,2013-05-05 08:59:00,
2013-05-05 01:04:00,37.0,36.0,29.88,ESE,112,0.0,0.0,96,0.00,CLR,,0.00,WeatherDisplay:10.37,2013-05-05 09:04:00,
2013-05-05 01:09:00,37.0,36.0,29.88,ESE,112,0.0,0.0,96,0.00,CLR,,0.00,WeatherDisplay:10.37,2013-05-05 09:09:00,
2013-05-05 01:14:00,36.9,35.8,29.88,ESE,112,0.0,0.0,96,0.00,CLR,,0.00,WeatherDisplay:10.37,2013-05-05 09:14:00,
2013-05-05 01:19:00,37.0,36.3,29.88,ESE,112,0.0,0.0,97,0.00,CLR,,0.00,WeatherDisplay:10.37,2013-05-05 09:19:00,
2013-05-05 01:24:00,37.0,36.3,29.88,ESE,112,0.0,0.0,97,0.00,CLR,,0.00,WeatherDisplay:10.37,2013-05-05 09:24:00,
2013-05-05 01:29:00,37.0,36.3,29.88,WSW,248,0.0,0.0,97,0.00,CLR,,0.00,WeatherDisplay:10.37,2013-05-05 09:29:00,
2013-05-05 01:34:00,37.2,36.4,29.88,SSW,202,0.0,0.0,97,0.00,CLR,,0.00,WeatherDisplay:10.37,2013-05-05 09:34:00,
2013-05-05 01:39:00,37.0,36.3,29.88,SSW,202,0.0,0.0,97,0.00,CLR,,0.00,WeatherDisplay:10.37,2013-05-05 09:39:00,
2013-05-05 01:44:00,37.0,36.3,29.91,SSW,202,0.0,0.0,97,0.00,CLR,,0.00,WeatherDisplay:10.37,2013-05-05 09:44:00,
2013-05-05 01:49:00,37.0,36.3,29.91,SSW,202,0.0,0.0,97,0.00,CLR,,0.00,WeatherDisplay:10.37,2013-05-05 09:49:00,
2013-05-05 01:54:00,37.0,36.3,29.91,South,180,0.0,0.0,97,0.00,CLR,,0.00,WeatherDisplay:10.37,2013-05-05 09:54:00,
2013-05-05 01:59:00,37.0,36.3,29.91,SSE,158,0.0,0.0,97,0.00,CLR,,0.00,WeatherDisplay:10.37,2013-05-05 09:59:00,
2013-05-05 02:04:00,36.9,36.1,29.91,SE,135,0.0,0.0,97,0.00,CLR,,0.00,WeatherDisplay:10.37,2013-05-05 10:04:00,
2013-05-05 02:09:00,36.9,36.1,29.91,South,180,0.0,0.0,97,0.00,CLR,,0.00,WeatherDisplay:10.37,2013-05-05 10:09:00,
2013-05-05 02:14:00,36.9,36.1,29.91,South,180,0.0,0.0,97,0.00,CLR,,0.00,WeatherDisplay:10.37,2013-05-05 10:14:00,
2013-05-05 02:19:00,36.9,36.1,29.91,SSW,202,0.0,0.0,97,0.00,CLR,,0.00,WeatherDisplay:10.37,2013-05-05 10:19:00,
2013-05-05 02:24:00,36.7,35.9,29.91,SSW,202,0.0,0.0,97,0.00,CLR,,0.00,WeatherDisplay:10.37,2013-05-05 10:24:00,
2013-05-05 02:29:00,36.5,35.7,29.91,SSW,202,0.0,0.0,97,0.00,CLR,,0.00,WeatherDisplay:10.37,2013-05-05 10:29:00,
2013-05-05 02:34:00,36.5,35.7,29.91,SSW,202,0.0,0.0,97,0.00,CLR,,0.00,WeatherDisplay:10.37,2013-05-05 10:34:00,
2013-05-05 02:39:00,36.5,35.7,29.91,SSW,202,0.0,0.0,97,0.00,CLR,,0.00,WeatherDisplay:10.37,2013-05-05 10:39:00,
2013-05-05 02:44:00,36.3,35.6,29.91,SSW,202,0.0,0.0,97,0.00,CLR,,0.00,WeatherDisplay:10.37,2013-05-05 10:44:00,
2013-05-05 02:49:00,36.1,35.4,29.91,SSW,202,0.0,0.0,97,0.00,CLR,,0.00,WeatherDisplay:10.37,2013-05-05 10:49:00,
2013-05-05 02:54:00,36.0,35.2,29.91,SSW,202,0.0,0.0,97,0.00,CLR,,0.00,WeatherDisplay:10.37,2013-05-05 10:54:00,
2013-05-05 02:59:00,35.8,35.0,29.91,SSW,202,0.0,0.0,97,0.00,CLR,,0.00,WeatherDisplay:10.37,2013-05-05 10:59:00,
2013-05-05 03:04:00,35.8,35.0,29.91,SSW,202,0.0,0.0,97,0.00,CLR,,0.00,WeatherDisplay:10.37,2013-05-05 11:04:00,
2013-05-05 03:09:00,35.6,34.8,29.91,SE,135,0.0,0.0,97,0.00,CLR,,0.00,WeatherDisplay:10.37,2013-05-05 11:09:00,
2013-05-05 03:14:00,35.6,34.8,29.91,SE,135,0.0,0.0,97,0.00,CLR,,0.00,WeatherDisplay:10.37,2013-05-05 11:14:00,
2013-05-05 03:19:00,35.4,34.9,29.91,ENE,68,0.0,0.0,98,0.00,CLR,,0.00,WeatherDisplay:10.37,2013-05-05 11:19:00,
2013-05-05 03:24:00,35.2,34.7,29.91,ENE,68,0.0,0.0,98,0.00,CLR,,0.00,WeatherDisplay:10.37,2013-05-05 11:24:00,
2013-05-05 03:29:00,35.1,34.6,29.94,ENE,68,0.0,0.0,98,0.00,CLR,,0.00,WeatherDisplay:10.37,2013-05-05 11:29:00,
2013-05-05 03:34:00,35.1,34.6,29.94,ENE,68,0.0,0.0,98,0.00,CLR,,0.00,WeatherDisplay:10.37,2013-05-05 11:34:00,
2013-05-05 03:39:00,34.9,34.4,29.94,ENE,68,0.0,0.0,98,0.00,CLR,,0.00,WeatherDisplay:10.37,2013-05-05 11:39:00,
2013-05-05 03:44:00,34.9,34.4,29.94,ENE,68,0.0,0.0,98,0.00,CLR,,0.00,WeatherDisplay:10.37,2013-05-05 11:44:00,
2013-05-05 03:49:00,34.5,34.0,29.94,ENE,68,0.0,0.0,98,0.00,CLR,,0.00,WeatherDisplay:10.37,2013-05-05 11:49:00,
2013-05-05 03:54:00,34.5,34.0,29.94,ENE,68,0.0,0.0,98,0.00,CLR,,0.00,WeatherDisplay:10.37,2013-05-05 11:54:00,
2013-05-05 03:59:00,34.3,33.8,29.94,ENE,68,0.0,0.0,98,0.00,CLR,,0.00,WeatherDisplay:10.37,2013-05-05 11:59:00,
2013-05-05 04:04:00,34.2,33.7,29.94,ENE,68,0.0,0.0,98,0.00,CLR,,0.00,WeatherDisplay:10.37,2013-05-05 12:04:00,
2013-05-05 04:09:00,34.2,33.7,29.94,ENE,68,0.0,0.0,98,0.00,CLR,,0.00,WeatherDisplay:10.37,2013-05-05 12:09:00,
2013-05-05 04:14:00,34.0,33.5,29.94,ENE,68,0.0,0.0,98,0.00,CLR,,0.00,WeatherDisplay:10.37,2013-05-05 12:14:00,
2013-05-05 04:19:00,33.8,33.3,29.94,ENE,68,0.0,0.0,98,0.00,CLR,,0.00,WeatherDisplay:10.37,2013-05-05 12:19:00,
2013-05-05 04:24:00,33.6,33.1,29.94,ENE,68,0.0,0.0,98,0.00,CLR,,0.00,WeatherDisplay:10.37,2013-05-05 12:24:00,
2013-05-05 04:29:00,33.4,32.9,29.94,ENE,68,0.0,0.0,98,0.00,CLR,,0.00,WeatherDisplay:10.37,2013-05-05 12:29:00,
2013-05-05 04:34:00,33.3,32.8,29.94,ENE,68,0.0,0.0,98,0.00,CLR,,0.00,WeatherDisplay:10.37,2013-05-05 12:34:00,
2013-05-05 04:39:00,33.3,32.8,29.94,ENE,68,0.0,0.0,98,0.00,CLR,,0.00,WeatherDisplay:10.37,2013-05-05 12:39:00,
2013-05-05 04:44:00,33.1,32.6,29.94,NNW,338,0.0,0.0,98,0.00,CLR,,0.00,WeatherDisplay:10.37,2013-05-05 12:44:00,
2013-05-05 04:49:00,33.1,32.6,29.94,North,0,0.0,0.0,98,0.00,CLR,,0.00,WeatherDisplay:10.37,2013-05-05 12:49:00,
2013-05-05 04:54:00,32.9,32.4,29.94,North,0,0.0,0.0,98,0.00,CLR,,0.00,WeatherDisplay:10.37,2013-05-05 12:54:00,
2013-05-05 04:59:00,32.7,32.2,29.97,North,0,0.0,0.0,98,0.00,CLR,,0.00,WeatherDisplay:10.37,2013-05-05 12:59:00,
2013-05-05 05:04:00,32.5,32.0,29.97,NNW,338,0.0,0.0,98,0.00,CLR,,0.00,WeatherDisplay:10.37,2013-05-05 13:04:00,
2013-05-05 05:09:00,32.4,31.9,29.97,NNW,338,0.0,0.0,98,0.00,CLR,,0.00,WeatherDisplay:10.37,2013-05-05 13:09:00,
2013-05-05 05:14:00,32.2,31.4,29.97,NNW,338,0.0,0.0,97,0.00,CLR,,0.00,WeatherDisplay:10.37,2013-05-05 13:14:00,
2013-05-05 05:19:00,32.0,31.5,29.97,NNW,338,0.0,0.0,98,0.00,CLR,,0.00,WeatherDisplay:10.37,2013-05-05 13:19:00,
2013-05-05 05:24:00,31.8,31.3,29.97,NNW,338,0.0,0.0,98,0.00,CLR,,0.00,WeatherDisplay:10.37,2013-05-05 13:24:00,
2013-05-05 05:29:00,31.5,31.0,29.97,NNW,338,0.0,0.0,98,0.00,CLR,,0.00,WeatherDisplay:10.37,2013-05-05 13:29:00,
2013-05-05 05:34:00,31.3,30.8,29.97,NW,315,0.0,0.0,98,0.00,CLR,,0.00,WeatherDisplay:10.37,2013-05-05 13:34:00,
2013-05-05 05:39:00,31.1,30.3,29.97,NW,315,0.0,0.0,97,0.00,CLR,,0.00,WeatherDisplay:10.37,2013-05-05 13:39:00,
2013-05-05 05:44:00,31.1,30.3,29.97,NNW,338,0.0,0.0,97,0.00,CLR,,0.00,WeatherDisplay:10.37,2013-05-05 13:44:00,
2013-05-05 05:49:00,31.1,30.6,29.97,NNW,338,0.0,0.0,98,0.00,CLR,,0.00,WeatherDisplay:10.37,2013-05-05 13:49:00,
2013-05-05 05:54:00,30.9,30.4,29.97,West,270,0.0,0.0,98,0.00,CLR,,0.00,WeatherDisplay:10.37,2013-05-05 13:54:00,
2013-05-05 05:59:00,30.9,30.4,29.97,WSW,248,0.0,0.0,98,0.00,CLR,,0.00,WeatherDisplay:10.37,2013-05-05 13:59:00,
2013-05-05 06:04:00,30.7,30.2,29.97,WSW,248,0.0,0.0,98,0.00,CLR,,0.00,WeatherDisplay:10.37,2013-05-05 14:04:00,
2013-05-05 06:09:00,30.7,30.2,29.97,SW,225,0.0,0.0,98,0.00,CLR,,0.00,WeatherDisplay:10.37,2013-05-05 14:09:00,
2013-05-05 06:14:00,30.7,30.2,29.97,SW,225,0.0,0.0,98,0.00,CLR,,0.00,WeatherDisplay:10.37,2013-05-05 14:14:00,
2013-05-05 06:19:00,30.6,30.1,29.97,SW,225,0.0,0.0,98,0.00,CLR,,0.00,WeatherDisplay:10.37,2013-05-05 14:19:00,
2013-05-05 06:24:00,30.6,30.1,29.97,SW,225,0.0,0.0,98,0.00,CLR,,0.00,WeatherDisplay:10.37,2013-05-05 14:24:00,
2013-05-05 06:29:00,30.7,30.2,29.97,SW,225,0.0,0.0,98,0.00,CLR,,0.00,WeatherDisplay:10.37,2013-05-05 14:29:00,
2013-05-05 06:34:00,30.9,30.4,29.97,SW,225,0.0,0.0,98,0.00,CLR,,0.00,WeatherDisplay:10.37,2013-05-05 14:34:00,
2013-05-05 06:39:00,30.7,30.2,29.97,SW,225,0.0,0.0,98,0.00,CLR,,0.00,WeatherDisplay:10.37,2013-05-05 14:39:00,
2013-05-05 06:44:00,30.7,30.2,29.97,SW,225,0.0,0.0,98,0.00,CLR,,0.00,WeatherDisplay:10.37,2013-05-05 14:44:00,
2013-05-05 06:49:00,30.9,30.4,29.97,SW,225,0.0,0.0,98,0.00,CLR,,0.00,WeatherDisplay:10.37,2013-05-05 14:49:00,
2013-05-05 06:54:00,30.9,30.4,29.97,SW,225,0.0,0.0,98,0.00,CLR,,0.00,WeatherDisplay:10.37,2013-05-05 14:54:00,
2013-05-05 06:59:00,31.1,30.6,29.97,SW,225,0.0,0.0,98,0.00,CLR,,0.00,WeatherDisplay:10.37,2013-05-05 14:59:00,
2013-05-05 07:04:00,31.3,30.8,29.97,SW,225,0.0,0.0,98,0.00,CLR,,0.00,WeatherDisplay:10.37,2013-05-05 15:04:00,
2013-05-05 07:09:00,31.3,30.8,29.97,SW,225,0.0,0.0,98,0.00,CLR,,0.00,WeatherDisplay:10.37,2013-05-05 15:09:00,
2013-05-05 07:14:00,31.8,31.3,29.97,SW,225,0.0,0.0,98,0.00,CLR,,0.00,WeatherDisplay:10.37,2013-05-05 15:14:00,
2013-05-05 07:19:00,32.2,31.7,29.97,SSW,202,0.0,0.0,98,0.00,CLR,,0.00,WeatherDisplay:10.37,2013-05-05 15:19:00,
2013-05-05 07:24:00,32.5,32.0,29.97,SSW,202,0.0,0.0,98,0.00,CLR,,0.00,WeatherDisplay:10.37,2013-05-05 15:24:00,
2013-05-05 07:29:00,32.7,32.2,30.00,NW,315,0.0,0.0,98,0.00,CLR,,0.00,WeatherDisplay:10.37,2013-05-05 15:29:00,
2013-05-05 07:34:00,32.9,32.4,30.00,NW,315,0.0,0.0,98,0.00,CLR,,0.00,WeatherDisplay:10.37,2013-05-05 15:34:00,
2013-05-05 07:39:00,33.3,32.8,30.00,North,0,0.0,0.0,98,0.00,CLR,,0.00,WeatherDisplay:10.37,2013-05-05 15:39:00,
2013-05-05 07:44:00,33.6,29.9,30.00,NW,315,1.1,0.0,86,0.00,CLR,,0.00,WeatherDisplay:10.37,2013-05-05 15:44:00,
2013-05-05 07:49:00,33.8,24.4,30.00,NNW,338,2.4,2.4,68,0.00,CLR,,0.00,WeatherDisplay:10.37,2013-05-05 15:49:00,
2013-05-05 07:54:00,34.0,25.9,30.00,NNW,338,1.1,0.0,72,0.00,CLR,,0.00,WeatherDisplay:10.37,2013-05-05 15:54:00,
2013-05-05 07:59:00,34.3,23.4,30.00,NNW,338,2.2,0.0,64,0.00,CLR,,0.00,WeatherDisplay:10.37,2013-05-05 15:59:00,
2013-05-05 08:04:00,34.3,22.3,30.00,NNW,338,2.6,2.6,61,0.00,CLR,,0.00,WeatherDisplay:10.37,2013-05-05 16:04:00,
2013-05-05 08:09:00,34.7,21.4,30.00,North,0,2.3,2.3,58,0.00,CLR,,0.00,WeatherDisplay:10.37,2013-05-05 16:09:00,
2013-05-05 08:14:00,35.1,23.0,30.00,NNW,338,1.1,0.0,61,0.00,CLR,,0.00,WeatherDisplay:10.37,2013-05-05 16:14:00,
2013-05-05 08:19:00,36.0,23.4,30.00,North,0,2.3,2.3,60,0.00,CLR,,0.00,WeatherDisplay:10.37,2013-05-05 16:19:00,
2013-05-05 08:24:00,37.0,22.8,30.00,North,0,2.3,2.3,56,0.00,CLR,,0.00,WeatherDisplay:10.37,2013-05-05 16:24:00,
2013-05-05 08:29:00,37.4,23.1,30.00,NNW,338,3.5,3.5,56,0.00,CLR,,0.00,WeatherDisplay:10.37,2013-05-05 16:29:00,
2013-05-05 08:34:00,38.1,21.6,30.00,NNW,338,4.7,4.7,51,0.00,CLR,,0.00,WeatherDisplay:10.37,2013-05-05 16:34:00,
2013-05-05 08:39:00,38.1,21.6,30.00,NNW,338,5.8,5.8,51,0.00,CLR,,0.00,WeatherDisplay:10.37,2013-05-05 16:39:00,
2013-05-05 08:44:00,38.1,21.6,30.00,North,0,4.6,4.6,51,0.00,CLR,,0.00,WeatherDisplay:10.37,2013-05-05 16:44:00,
2013-05-05 08:49:00,38.3,21.7,30.00,NNW,338,3.5,3.5,51,0.00,CLR,,0.00,WeatherDisplay:10.37,2013-05-05 16:49:00,
2013-05-05 08:54:00,37.8,20.8,30.00,NNW,338,2.9,2.9,50,0.00,CLR,,0.00,WeatherDisplay:10.37,2013-05-05 16:54:00,
2013-05-05 08:59:00,37.9,21.4,30.00,North,0,2.3,2.6,51,0.00,CLR,,0.00,WeatherDisplay:10.37,2013-05-05 16:59:00,
2013-05-05 09:04:00,38.1,20.6,30.00,NNW,338,4.6,4.6,49,0.00,CLR,,0.00,WeatherDisplay:10.37,2013-05-05 17:04:00,
2013-05-05 09:09:00,37.9,20.5,30.00,NNW,338,3.5,3.5,49,0.00,CLR,,0.00,WeatherDisplay:10.37,2013-05-05 17:09:00,
2013-05-05 09:14:00,37.9,20.9,30.00,NNE,22,2.3,2.4,50,0.00,CLR,,0.00,WeatherDisplay:10.37,2013-05-05 17:14:00,
2013-05-05 09:19:00,38.5,21.4,30.00,NNE,22,2.9,2.9,50,0.00,CLR,,0.00,WeatherDisplay:10.37,2013-05-05 17:19:00,
2013-05-05 09:24:00,38.7,21.6,30.00,North,0,2.6,2.6,50,0.00,CLR,,0.00,WeatherDisplay:10.37,2013-05-05 17:24:00,
2013-05-05 09:29:00,38.3,20.3,30.03,NNW,338,4.9,4.9,48,0.00,CLR,,0.00,WeatherDisplay:10.37,2013-05-05 17:29:00,
2013-05-05 09:34:00,38.1,20.1,30.03,NNW,338,3.5,3.5,48,0.00,CLR,,0.00,WeatherDisplay:10.37,2013-05-05 17:34:00,
2013-05-05 09:39:00,38.5,21.9,30.03,NNE,22,2.9,2.9,51,0.00,CLR,,0.00,WeatherDisplay:10.37,2013-05-05 17:39:00,
2013-05-05 09:44:00,38.8,22.2,30.03,NW,315,3.5,3.5,51,0.00,CLR,,0.00,WeatherDisplay:10.37,2013-05-05 17:44:00,
2013-05-05 09:49:00,38.7,21.6,30.03,North,0,3.5,3.5,50,0.00,CLR,,0.00,WeatherDisplay:10.37,2013-05-05 17:49:00,
2013-05-05 09:54:00,38.8,22.2,30.03,North,0,3.5,3.5,51,0.00,CLR,,0.00,WeatherDisplay:10.37,2013-05-05 17:54:00,
2013-05-05 09:59:00,39.2,22.1,30.03,North,0,3.8,3.8,50,0.00,CLR,,0.00,WeatherDisplay:10.37,2013-05-05 17:59:00,
2013-05-05 10:04:00,39.4,22.7,30.03,NNW,338,3.5,3.5,51,0.00,CLR,,0.00,WeatherDisplay:10.37,2013-05-05 18:04:00,
2013-05-05 10:09:00,39.0,21.9,30.03,NNE,22,3.5,3.5,50,0.00,CLR,,0.00,WeatherDisplay:10.37,2013-05-05 18:09:00,
2013-05-05 10:14:00,39.2,22.1,30.00,NNE,22,3.8,3.8,50,0.00,CLR,,0.00,WeatherDisplay:10.37,2013-05-05 18:14:00,
2013-05-05 10:19:00,39.7,22.1,30.00,NNW,338,4.3,4.3,49,0.00,CLR,,0.00,WeatherDisplay:10.37,2013-05-05 18:19:00,
2013-05-05 10:24:00,39.7,22.1,30.00,NNE,22,3.5,3.5,49,0.00,CLR,,0.00,WeatherDisplay:10.37,2013-05-05 18:24:00,
2013-05-05 10:29:00,39.9,22.3,30.03,NNE,22,3.5,3.5,49,0.00,CLR,,0.00,WeatherDisplay:10.37,2013-05-05 18:29:00,
2013-05-05 10:34:00,40.3,22.6,30.03,NNW,338,3.6,3.6,49,0.00,CLR,,0.00,WeatherDisplay:10.37,2013-05-05 18:34:00,
2013-05-05 10:39:00,40.5,23.3,30.03,NNE,22,2.3,2.6,50,0.00,CLR,,0.00,WeatherDisplay:10.37,2013-05-05 18:39:00,
2013-05-05 10:44:00,41.0,23.3,30.03,NE,45,3.5,3.5,49,0.00,CLR,,0.00,WeatherDisplay:10.37,2013-05-05 18:44:00,
2013-05-05 10:49:00,42.1,22.8,30.03,NNW,338,3.5,3.8,46,0.00,CLR,,0.00,WeatherDisplay:10.37,2013-05-05 18:49:00,
2013-05-05 10:54:00,42.4,23.6,30.03,NNW,338,2.3,2.3,47,0.00,CLR,,0.00,WeatherDisplay:10.37,2013-05-05 18:54:00,
2013-05-05 10:59:00,43.0,23.6,30.03,North,0,1.1,1.1,46,0.00,CLR,,0.00,WeatherDisplay:10.37,2013-05-05 18:59:00,
2013-05-05 11:04:00,43.7,24.8,30.03,North,0,3.8,0.0,47,0.00,CLR,,0.00,WeatherDisplay:10.37,2013-05-05 19:04:00,
2013-05-05 11:09:00,44.8,25.2,30.03,NNE,22,3.5,3.5,46,0.00,CLR,,0.00,WeatherDisplay:10.37,2013-05-05 19:09:00,
2013-05-05 11:14:00,44.6,24.5,30.03,North,0,3.1,3.1,45,0.00,CLR,,0.00,WeatherDisplay:10.37,2013-05-05 19:14:00,
2013-05-05 11:19:00,45.1,24.5,30.03,West,270,1.1,0.0,44,0.00,CLR,,0.00,WeatherDisplay:10.37,2013-05-05 19:19:00,
2013-05-05 11:24:00,45.1,24.5,30.03,North,0,4.0,4.0,44,0.00,CLR,,0.00,WeatherDisplay:10.37,2013-05-05 19:24:00,
2013-05-05 11:29:00,45.3,23.0,30.00,North,0,4.0,4.0,41,0.00,CLR,,0.00,WeatherDisplay:10.37,2013-05-05 19:29:00,
2013-05-05 11:34:00,45.7,23.9,30.00,NNE,22,2.3,2.3,42,0.00,CLR,,0.00,WeatherDisplay:10.37,2013-05-05 19:34:00,
2013-05-05 11:39:00,46.0,23.6,30.00,NNE,22,3.5,3.5,41,0.00,CLR,,0.00,WeatherDisplay:10.37,2013-05-05 19:39:00,
2013-05-05 11:44:00,46.0,25.9,30.00,NNE,22,1.1,1.1,45,0.00,CLR,,0.00,WeatherDisplay:10.37,2013-05-05 19:44:00,
2013-05-05 11:49:00,46.6,25.3,30.00,North,0,3.5,3.5,43,0.00,CLR,,0.00,WeatherDisplay:10.37,2013-05-05 19:49:00,
2013-05-05 11:54:00,46.9,24.4,30.00,NNE,22,2.4,2.4,41,0.00,CLR,,0.00,WeatherDisplay:10.37,2013-05-05 19:54:00,
2013-05-05 11:59:00,47.3,24.8,30.03,ENE,68,3.3,3.3,41,0.00,CLR,,0.00,WeatherDisplay:10.37,2013-05-05 19:59:00,
2013-05-05 12:04:00,47.3,25.3,30.03,NNE,22,2.3,2.3,42,0.00,CLR,,0.00,WeatherDisplay:10.37,2013-05-05 20:04:00,
2013-05-05 12:09:00,47.7,25.1,30.03,NNE,22,2.3,2.3,41,0.00,CLR,,0.00,WeatherDisplay:10.37,2013-05-05 20:09:00,
2013-05-05 12:14:00,47.7,25.1,30.03,NW,315,2.3,2.3,41,0.00,CLR,,0.00,WeatherDisplay:10.37,2013-05-05 20:14:00,
2013-05-05 12:19:00,47.7,25.1,30.03,WNW,292,0.0,0.0,41,0.00,CLR,,0.00,WeatherDisplay:10.37,2013-05-05 20:19:00,
2013-05-05 12:24:00,48.9,26.8,30.03,NNE,22,2.3,2.3,42,0.00,CLR,,0.00,WeatherDisplay:10.37,2013-05-05 20:24:00,
2013-05-05 12:29:00,49.5,26.1,30.03,NNE,22,3.1,0.0,40,0.00,CLR,,0.00,WeatherDisplay:10.37,2013-05-05 20:29:00,
2013-05-05 12:34:00,49.1,25.8,30.03,West,270,2.3,2.3,40,0.00,CLR,,0.00,WeatherDisplay:10.37,2013-05-05 20:34:00,
2013-05-05 12:39:00,48.7,26.1,30.03,West,270,2.6,2.6,41,0.00,CLR,,0.00,WeatherDisplay:10.37,2013-05-05 20:39:00,
2013-05-05 12:44:00,49.1,25.8,30.03,North,0,3.6,0.0,40,0.00,CLR,,0.00,WeatherDisplay:10.37,2013-05-05 20:44:00,
2013-05-05 12:49:00,48.4,26.3,30.03,WNW,292,2.3,2.3,42,0.00,CLR,,0.00,WeatherDisplay:10.37,2013-05-05 20:49:00,
2013-05-05 12:54:00,48.0,26.0,30.03,WNW,292,1.1,1.4,42,0.00,CLR,,0.00,WeatherDisplay:10.37,2013-05-05 20:54:00,
2013-05-05 12:59:00,47.5,25.5,30.03,NNE,22,3.5,3.5,42,0.00,CLR,,0.00,WeatherDisplay:10.37,2013-05-05 20:59:00,
2013-05-05 13:04:00,48.6,27.1,30.03,NNE,22,2.3,2.3,43,0.00,CLR,,0.00,WeatherDisplay:10.37,2013-05-05 21:04:00,
2013-05-05 13:09:00,47.8,25.8,30.03,North,0,3.5,3.5,42,0.00,CLR,,0.00,WeatherDisplay:10.37,2013-05-05 21:09:00,
2013-05-05 13:14:00,49.1,26.4,30.03,North,0,2.4,0.0,41,0.00,CLR,,0.00,WeatherDisplay:10.37,2013-05-05 21:14:00,
2013-05-05 13:19:00,48.7,24.9,30.03,NNE,22,3.5,3.5,39,0.00,CLR,,0.00,WeatherDisplay:10.37,2013-05-05 21:19:00,
2013-05-05 13:24:00,48.9,25.0,30.03,North,0,3.5,3.5,39,0.00,CLR,,0.00,WeatherDisplay:10.37,2013-05-05 21:24:00,
2013-05-05 13:29:00,49.6,25.7,30.03,North,0,3.8,3.8,39,0.00,CLR,,0.00,WeatherDisplay:10.37,2013-05-05 21:29:00,
2013-05-05 13:34:00,49.6,26.9,30.03,West,270,2.3,2.3,41,0.00,CLR,,0.00,WeatherDisplay:10.37,2013-05-05 21:34:00,
2013-05-05 13:39:00,49.1,25.8,30.03,WNW,292,1.4,1.6,40,0.00,CLR,,0.00,WeatherDisplay:10.37,2013-05-05 21:39:00,
2013-05-05 13:44:00,48.6,24.7,30.03,NNW,338,3.6,4.0,39,0.00,CLR,,0.00,WeatherDisplay:10.37,2013-05-05 21:44:00,
2013-05-05 13:49:00,47.5,23.7,30.03,NNW,338,3.5,3.5,39,0.00,CLR,,0.00,WeatherDisplay:10.37,2013-05-05 21:49:00,
2013-05-05 13:54:00,47.3,23.6,30.03,WNW,292,1.1,1.4,39,0.00,CLR,,0.00,WeatherDisplay:10.37,2013-05-05 21:54:00,
2013-05-05 13:59:00,47.8,24.0,30.03,West,270,1.1,1.1,39,0.00,CLR,,0.00,WeatherDisplay:10.37,2013-05-05 21:59:00,
2013-05-05 14:04:00,48.2,24.4,30.03,North,0,4.6,4.6,39,0.00,CLR,,0.00,WeatherDisplay:10.37,2013-05-05 22:04:00,
2013-05-05 14:09:00,47.8,24.0,30.03,NW,315,2.3,2.3,39,0.00,CLR,,0.00,WeatherDisplay:10.37,2013-05-05 22:09:00,
2013-05-05 14:14:00,46.6,22.9,30.03,NW,315,0.0,1.1,39,0.00,CLR,,0.00,WeatherDisplay:10.37,2013-05-05 22:14:00,
2013-05-05 14:19:00,46.0,22.4,30.03,NNE,22,3.6,3.6,39,0.00,CLR,,0.00,WeatherDisplay:10.37,2013-05-05 22:19:00,
2013-05-05 14:24:00,46.9,23.2,30.03,WNW,292,1.6,1.6,39,0.00,CLR,,0.00,WeatherDisplay:10.37,2013-05-05 22:24:00,
2013-05-05 14:29:00,47.3,23.6,30.03,NNE,22,3.5,0.0,39,0.00,CLR,,0.00,WeatherDisplay:10.37,2013-05-05 22:29:00,
2013-05-05 14:34:00,46.9,23.2,30.03,NNE,22,3.5,0.0,39,0.00,CLR,,0.00,WeatherDisplay:10.37,2013-05-05 22:34:00,
2013-05-05 14:39:00,47.3,23.6,30.03,NNE,22,3.5,0.0,39,0.00,CLR,,0.00,WeatherDisplay:10.37,2013-05-05 22:39:00,
2013-05-05 14:44:00,47.8,24.0,30.03,NNE,22,3.5,0.0,39,0.00,CLR,,0.00,WeatherDisplay:10.37,2013-05-05 22:44:00,
2013-05-05 14:49:00,48.2,23.7,30.03,NNE,22,3.5,0.0,38,0.00,CLR,,0.00,WeatherDisplay:10.37,2013-05-05 22:49:00,
2013-05-05 14:54:00,48.4,23.9,30.03,NNE,22,3.5,0.0,38,0.00,CLR,,0.00,WeatherDisplay:10.37,2013-05-05 22:54:00,
2013-05-05 14:59:00,48.2,23.1,30.03,NNE,22,3.5,0.0,37,0.00,CLR,,0.00,WeatherDisplay:10.37,2013-05-05 22:59:00,
2013-05-05 15:04:00,48.6,23.4,30.03,NNE,22,3.5,0.0,37,0.00,CLR,,0.00,WeatherDisplay:10.37,2013-05-05 23:04:00,
2013-05-05 15:09:00,48.7,23.6,30.03,NNE,22,3.5,0.0,37,0.00,CLR,,0.00,WeatherDisplay:10.37,2013-05-05 23:09:00,
2013-05-05 15:14:00,48.7,23.6,30.00,NNE,22,3.5,0.0,37,0.00,CLR,,0.00,WeatherDisplay:10.37,2013-05-05 23:14:00,
2013-05-05 15:19:00,48.2,23.1,30.00,NNE,22,3.5,0.0,37,0.00,CLR,,0.00,WeatherDisplay:10.37,2013-05-05 23:19:00,
2013-05-05 15:24:00,48.4,23.3,30.00,NNE,22,3.5,0.0,37,0.00,CLR,,0.00,WeatherDisplay:10.37,2013-05-05 23:24:00,
2013-05-05 15:29:00,48.2,23.1,30.00,NNE,22,3.5,0.0,37,0.00,CLR,,0.00,WeatherDisplay:10.37,2013-05-05 23:29:00,
2013-05-05 15:34:00,49.1,23.9,30.00,WNW,292,1.4,3.6,37,0.00,CLR,,0.00,WeatherDisplay:10.37,2013-05-05 23:34:00,
2013-05-05 15:39:00,48.9,23.8,30.00,WNW,292,1.4,3.6,37,0.00,CLR,,0.00,WeatherDisplay:10.37,2013-05-05 23:39:00,
2013-05-05 15:44:00,48.2,23.1,30.00,WNW,292,1.4,3.6,37,0.00,CLR,,0.00,WeatherDisplay:10.37,2013-05-05 23:44:00,
2013-05-05 15:49:00,47.3,22.9,30.00,West,270,1.6,2.0,38,0.00,CLR,,0.00,WeatherDisplay:10.37,2013-05-05 23:49:00,
2013-05-05 15:54:00,46.9,22.6,30.00,West,270,1.6,2.0,38,0.00,CLR,,0.00,WeatherDisplay:10.37,2013-05-05 23:54:00,
2013-05-05 15:59:00,46.6,22.3,30.00,West,270,1.6,2.0,38,0.00,CLR,,0.00,WeatherDisplay:10.37,2013-05-05 23:59:00,
2013-05-05 16:04:00,47.7,23.3,30.00,West,270,1.6,2.0,38,0.00,CLR,,0.00,WeatherDisplay:10.37,2013-05-06 00:04:00,
2013-05-05 16:09:00,48.6,24.1,30.00,NW,315,2.9,2.9,38,0.00,CLR,,0.00,WeatherDisplay:10.37,2013-05-06 00:09:00,
2013-05-05 16:14:00,49.8,25.2,30.00,West,270,2.4,2.4,38,0.00,CLR,,0.00,WeatherDisplay:10.37,2013-05-06 00:14:00,
2013-05-05 16:19:00,50.0,24.7,30.00,NNW,338,1.1,1.4,37,0.00,CLR,,0.00,WeatherDisplay:10.37,2013-05-06 00:19:00,
2013-05-05 16:24:00,49.1,24.6,30.00,WNW,292,1.1,1.6,38,0.00,CLR,,0.00,WeatherDisplay:10.37,2013-05-06 00:24:00,
2013-05-05 16:29:00,48.6,24.1,30.00,West,270,2.4,0.0,38,0.00,CLR,,0.00,WeatherDisplay:10.37,2013-05-06 00:29:00,
2013-05-05 16:34:00,48.2,23.7,30.00,West,270,2.4,0.0,38,0.00,CLR,,0.00,WeatherDisplay:10.37,2013-05-06 00:34:00,
2013-05-05 16:39:00,48.0,23.6,30.00,WNW,292,0.0,0.9,38,0.00,CLR,,0.00,WeatherDisplay:10.37,2013-05-06 00:39:00,
2013-05-05 16:44:00,49.6,25.0,30.00,WNW,292,0.0,0.9,38,0.00,CLR,,0.00,WeatherDisplay:10.37,2013-05-06 00:44:00,
2013-05-05 16:49:00,50.4,25.0,30.00,WNW,292,0.0,0.9,37,0.00,CLR,,0.00,WeatherDisplay:10.37,2013-05-06 00:49:00,
2013-05-05 16:54:00,51.3,25.8,30.00,WNW,292,0.0,0.9,37,0.00,CLR,,0.00,WeatherDisplay:10.37,2013-05-06 00:54:00,
2013-05-05 16:59:00,50.7,25.4,30.00,WNW,292,0.0,0.9,37,0.00,CLR,,0.00,WeatherDisplay:10.37,2013-05-06 00:59:00,
2013-05-05 17:04:00,50.2,24.9,30.00,WNW,292,0.0,0.9,37,0.00,CLR,,0.00,WeatherDisplay:10.37,2013-05-06 01:04:00,
2013-05-05 17:09:00,50.4,25.0,30.00,West,270,2.3,2.3,37,0.00,CLR,,0.00,WeatherDisplay:10.37,2013-05-06 01:09:00,
2013-05-05 17:14:00,50.4,25.0,30.00,NNW,338,2.4,2.4,37,0.00,CLR,,0.00,WeatherDisplay:10.37,2013-05-06 01:14:00,
2013-05-05 17:19:00,49.8,24.6,30.00,NW,315,1.4,0.0,37,0.00,CLR,,0.00,WeatherDisplay:10.37,2013-05-06 01:19:00,
2013-05-05 17:24:00,48.9,23.8,30.00,NNW,338,2.9,2.9,37,0.00,CLR,,0.00,WeatherDisplay:10.37,2013-05-06 01:24:00,
2013-05-05 17:29:00,48.7,23.6,30.00,NNW,338,2.9,2.9,37,0.00,CLR,,0.00,WeatherDisplay:10.37,2013-05-06 01:29:00,
2013-05-05 17:34:00,47.5,22.5,30.00,NNW,338,2.9,2.9,37,0.00,CLR,,0.00,WeatherDisplay:10.37,2013-05-06 01:34:00,
2013-05-05 17:39:00,47.1,22.1,30.00,NNW,338,2.9,2.9,37,0.00,CLR,,0.00,WeatherDisplay:10.37,2013-05-06 01:39:00,
2013-05-05 17:44:00,46.6,22.3,30.00,NNW,338,2.9,2.9,38,0.00,CLR,,0.00,WeatherDisplay:10.37,2013-05-06 01:44:00,
2013-05-05 17:49:00,46.8,22.5,30.00,NNW,338,2.9,2.9,38,0.00,CLR,,0.00,WeatherDisplay:10.37,2013-05-06 01:49:00,
2013-05-05 17:54:00,47.1,22.8,30.00,NNW,338,2.9,2.9,38,0.00,CLR,,0.00,WeatherDisplay:10.37,2013-05-06 01:54:00,
2013-05-05 17:59:00,47.7,23.3,30.00,NNW,338,2.9,2.9,38,0.00,CLR,,0.00,WeatherDisplay:10.37,2013-05-06 01:59:00,
2013-05-05 18:04:00,47.7,23.3,30.00,NNW,338,2.9,2.9,38,0.00,CLR,,0.00,WeatherDisplay:10.37,2013-05-06 02:04:00,
2013-05-05 18:09:00,46.8,22.5,30.00,NW,315,1.1,1.1,38,0.00,CLR,,0.00,WeatherDisplay:10.37,2013-05-06 02:09:00,
2013-05-05 18:14:00,46.4,22.1,30.00,NW,315,1.1,1.1,38,0.00,CLR,,0.00,WeatherDisplay:10.37,2013-05-06 02:14:00,
2013-05-05 18:19:00,46.0,21.8,30.00,NW,315,1.1,1.1,38,0.00,CLR,,0.00,WeatherDisplay:10.37,2013-05-06 02:19:00,
2013-05-05 18:24:00,46.0,21.8,30.00,NW,315,1.1,1.1,38,0.00,CLR,,0.00,WeatherDisplay:10.37,2013-05-06 02:24:00,
2013-05-05 18:29:00,46.0,21.8,30.00,NW,315,1.1,1.1,38,0.00,CLR,,0.00,WeatherDisplay:10.37,2013-05-06 02:29:00,
2013-05-05 18:34:00,45.9,21.7,30.00,NW,315,1.1,1.1,38,0.00,CLR,,0.00,WeatherDisplay:10.37,2013-05-06 02:34:00,
2013-05-05 18:39:00,45.7,21.5,30.00,NW,315,1.1,1.1,38,0.00,CLR,,0.00,WeatherDisplay:10.37,2013-05-06 02:39:00,
2013-05-05 18:44:00,45.5,21.3,30.00,NW,315,1.1,1.1,38,0.00,CLR,,0.00,WeatherDisplay:10.37,2013-05-06 02:44:00,
2013-05-05 18:49:00,45.3,21.2,30.00,WNW,292,1.6,1.6,38,0.00,CLR,,0.00,WeatherDisplay:10.37,2013-05-06 02:49:00,
2013-05-05 18:54:00,45.3,21.2,30.00,West,270,0.0,0.0,38,0.00,CLR,,0.00,WeatherDisplay:10.37,2013-05-06 02:54:00,
2013-05-05 18:59:00,45.3,21.2,30.00,West,270,0.0,0.0,38,0.00,CLR,,0.00,WeatherDisplay:10.37,2013-05-06 02:59:00,
2013-05-05 19:04:00,45.1,21.0,30.00,West,270,0.0,0.0,38,0.00,CLR,,0.00,WeatherDisplay:10.37,2013-05-06 03:04:00,
2013-05-05 19:09:00,45.1,21.0,30.00,West,270,0.0,0.0,38,0.00,CLR,,0.00,WeatherDisplay:10.37,2013-05-06 03:09:00,
2013-05-05 19:14:00,45.0,21.5,30.00,West,270,0.0,0.0,39,0.00,CLR,,0.00,WeatherDisplay:10.37,2013-05-06 03:14:00,
2013-05-05 19:19:00,44.8,21.3,30.00,West,270,0.0,0.0,39,0.00,CLR,,0.00,WeatherDisplay:10.37,2013-05-06 03:19:00,
2013-05-05 19:24:00,44.8,21.3,30.00,West,270,0.0,0.0,39,0.00,CLR,,0.00,WeatherDisplay:10.37,2013-05-06 03:24:00,
2013-05-05 19:29:00,44.6,21.1,30.00,West,270,0.0,0.0,39,0.00,CLR,,0.00,WeatherDisplay:10.37,2013-05-06 03:29:00,
2013-05-05 19:34:00,45.0,21.5,30.00,WSW,248,0.0,1.1,39,0.00,CLR,,0.00,WeatherDisplay:10.37,2013-05-06 03:34:00,
2013-05-05 19:39:00,44.6,21.1,30.00,West,270,0.0,0.0,39,0.00,CLR,,0.00,WeatherDisplay:10.37,2013-05-06 03:39:00,
2013-05-05 19:44:00,44.4,21.0,30.00,WSW,248,0.0,0.0,39,0.00,CLR,,0.00,WeatherDisplay:10.37,2013-05-06 03:44:00,
2013-05-05 19:49:00,44.2,20.8,30.00,WSW,248,0.0,0.0,39,0.00,CLR,,0.00,WeatherDisplay:10.37,2013-05-06 03:49:00,
2013-05-05 19:54:00,43.9,20.5,30.00,SW,225,0.0,0.9,39,0.00,CLR,,0.00,WeatherDisplay:10.37,2013-05-06 03:54:00,
2013-05-05 19:59:00,43.7,20.3,30.00,SSW,202,0.0,0.0,39,0.00,CLR,,0.00,WeatherDisplay:10.37,2013-05-06 03:59:00,
2013-05-05 20:01:00,43.5,20.2,30.00,WSW,248,0.0,0.9,39,0.00,CLR,,0.00,WeatherDisplay:10.37,2013-05-06 04:01:00,
2013-05-05 20:02:00,43.5,20.2,30.00,WSW,248,0.0,0.9,39,0.00,CLR,,0.00,WeatherDisplay:10.37,2013-05-06 04:02:00,
2013-05-05 20:04:00,43.5,20.2,30.00,WSW,248,0.0,0.9,39,0.00,CLR,,0.00,WeatherDisplay:10.37,2013-05-06 04:04:00,
2013-05-05 20:09:00,43.2,19.8,30.00,WSW,248,0.0,0.9,39,0.00,CLR,,0.00,WeatherDisplay:10.37,2013-05-06 04:09:00,
2013-05-05 20:12:00,43.0,19.7,30.00,WSW,248,0.0,0.9,39,0.00,CLR,,0.00,WeatherDisplay:10.37,2013-05-06 04:12:00,
2013-05-05 20:17:00,43.0,19.7,30.00,WSW,248,0.0,0.9,39,0.00,CLR,,0.00,WeatherDisplay:10.37,2013-05-06 04:17:00,
2013-05-05 20:22:00,42.8,19.5,30.00,WSW,248,0.0,0.9,39,0.00,CLR,,0.00,WeatherDisplay:10.37,2013-05-06 04:22:00,
2013-05-05 20:27:00,42.6,20.0,30.00,WSW,248,0.0,0.9,40,0.00,CLR,,0.00,WeatherDisplay:10.37,2013-05-06 04:27:00,
2013-05-05 20:32:00,42.3,19.6,30.00,WSW,248,0.0,0.0,40,0.00,CLR,,0.00,WeatherDisplay:10.37,2013-05-06 04:32:00,
2013-05-05 20:37:00,42.3,19.6,30.00,WSW,248,0.0,0.9,40,0.00,CLR,,0.00,WeatherDisplay:10.37,2013-05-06 04:37:00,
2013-05-05 20:42:00,42.1,19.5,30.00,WSW,248,0.0,0.9,40,0.00,CLR,,0.00,WeatherDisplay:10.37,2013-05-06 04:42:00,
2013-05-05 20:47:00,41.9,19.3,30.00,WSW,248,0.0,0.9,40,0.00,CLR,,0.00,WeatherDisplay:10.37,2013-05-06 04:47:00,
2013-05-05 20:52:00,41.7,19.1,30.00,WSW,248,0.0,0.0,40,0.00,CLR,,0.00,WeatherDisplay:10.37,2013-05-06 04:52:00,
2013-05-05 20:57:00,41.5,19.0,30.00,WSW,248,0.0,0.0,40,0.00,CLR,,0.00,WeatherDisplay:10.37,2013-05-06 04:57:00,
2013-05-05 21:02:00,41.5,19.0,30.00,WSW,248,1.6,0.0,40,0.00,CLR,,0.00,WeatherDisplay:10.37,2013-05-06 05:02:00,
2013-05-05 21:07:00,41.2,19.2,30.00,WSW,248,1.6,0.0,41,0.00,CLR,,0.00,WeatherDisplay:10.37,2013-05-06 05:07:00,
2013-05-05 21:12:00,41.0,19.1,30.00,SW,225,0.0,0.0,41,0.00,CLR,,0.00,WeatherDisplay:10.37,2013-05-06 05:12:00,
2013-05-05 21:17:00,40.8,18.9,30.00,SW,225,0.0,0.0,41,0.00,CLR,,0.00,WeatherDisplay:10.37,2013-05-06 05:17:00,
2013-05-05 21:22:00,40.5,18.6,30.00,SW,225,0.0,0.0,41,0.00,CLR,,0.00,WeatherDisplay:10.37,2013-05-06 05:22:00,
2013-05-05 21:27:00,40.3,19.0,30.00,SW,225,0.0,0.0,42,0.00,CLR,,0.00,WeatherDisplay:10.37,2013-05-06 05:27:00,
2013-05-05 21:32:00,40.1,18.8,30.00,SW,225,0.0,0.0,42,0.00,CLR,,0.00,WeatherDisplay:10.37,2013-05-06 05:32:00,
2013-05-05 21:37:00,39.7,18.5,30.00,SW,225,0.0,0.0,42,0.00,CLR,,0.00,WeatherDisplay:10.37,2013-05-06 05:37:00,
2013-05-05 21:42:00,39.6,18.9,30.00,SW,225,0.0,0.0,43,0.00,CLR,,0.00,WeatherDisplay:10.37,2013-05-06 05:42:00,
2013-05-05 21:47:00,39.4,19.3,30.00,SW,225,0.0,0.0,44,0.00,CLR,,0.00,WeatherDisplay:10.37,2013-05-06 05:47:00,
2013-05-05 21:52:00,39.4,19.8,30.00,SW,225,0.0,0.0,45,0.00,CLR,,0.00,WeatherDisplay:10.37,2013-05-06 05:52:00,
2013-05-05 21:57:00,39.2,20.1,30.00,SW,225,0.0,0.0,46,0.00,CLR,,0.00,WeatherDisplay:10.37,2013-05-06 05:57:00,
2013-05-05 22:02:00,38.8,19.8,30.00,SW,225,0.0,0.0,46,0.00,CLR,,0.00,WeatherDisplay:10.37,2013-05-06 06:02:00,
2013-05-05 22:07:00,38.7,20.1,30.00,SW,225,0.0,0.0,47,0.00,CLR,,0.00,WeatherDisplay:10.37,2013-05-06 06:07:00,
2013-05-05 22:12:00,38.7,20.6,30.00,SW,225,0.0,0.0,48,0.00,CLR,,0.00,WeatherDisplay:10.37,2013-05-06 06:12:00,
2013-05-05 22:17:00,38.5,21.0,30.00,SW,225,0.0,0.0,49,0.00,CLR,,0.00,WeatherDisplay:10.37,2013-05-06 06:17:00,
2013-05-05 22:22:00,38.5,21.4,30.00,SW,225,0.0,0.0,50,0.00,CLR,,0.00,WeatherDisplay:10.37,2013-05-06 06:22:00,
2013-05-05 22:27:00,38.8,22.2,30.00,SW,225,0.0,0.0,51,0.00,CLR,,0.00,WeatherDisplay:10.37,2013-05-06 06:27:00,
2013-05-05 22:32:00,39.2,23.0,30.00,SW,225,0.0,0.0,52,0.00,CLR,,0.00,WeatherDisplay:10.37,2013-05-06 06:32:00,
2013-05-05 22:37:00,39.2,23.0,30.00,SW,225,0.0,0.0,52,0.00,CLR,,0.00,WeatherDisplay:10.37,2013-05-06 06:37:00,
2013-05-05 22:42:00,39.0,23.3,30.00,East,90,0.0,0.0,53,0.00,CLR,,0.00,WeatherDisplay:10.37,2013-05-06 06:42:00,
2013-05-05 22:47:00,38.8,22.7,30.00,East,90,0.0,0.0,52,0.00,CLR,,0.00,WeatherDisplay:10.37,2013-05-06 06:47:00,
2013-05-05 22:52:00,38.8,22.2,30.00,East,90,0.0,0.0,51,0.00,CLR,,0.00,WeatherDisplay:10.37,2013-05-06 06:52:00,
2013-05-05 22:57:00,38.8,22.7,30.00,East,90,0.0,0.0,52,0.00,CLR,,0.00,WeatherDisplay:10.37,2013-05-06 06:57:00,
2013-05-05 23:02:00,38.7,22.5,30.03,East,90,0.0,0.0,52,0.00,CLR,,0.00,WeatherDisplay:10.37,2013-05-06 07:02:00,
2013-05-05 23:07:00,38.5,22.8,30.03,East,90,0.0,0.0,53,0.00,CLR,,0.00,WeatherDisplay:10.37,2013-05-06 07:07:00,
2013-05-05 23:12:00,37.9,22.3,30.03,East,90,0.0,0.0,53,0.00,CLR,,0.00,WeatherDisplay:10.37,2013-05-06 07:12:00,
2013-05-05 23:17:00,37.6,22.0,30.03,East,90,0.0,0.0,53,0.00,CLR,,0.00,WeatherDisplay:10.37,2013-05-06 07:17:00,
2013-05-05 23:22:00,37.0,21.9,30.03,East,90,0.0,0.0,54,0.00,CLR,,0.00,WeatherDisplay:10.37,2013-05-06 07:22:00,
2013-05-05 23:27:00,36.7,21.6,30.03,East,90,0.0,0.0,54,0.00,CLR,,0.00,WeatherDisplay:10.37,2013-05-06 07:27:00,
2013-05-05 23:32:00,36.9,21.7,30.03,East,90,0.0,0.0,54,0.00,CLR,,0.00,WeatherDisplay:10.37,2013-05-06 07:32:00,
2013-05-05 23:37:00,36.5,21.8,30.03,East,90,0.0,0.0,55,0.00,CLR,,0.00,WeatherDisplay:10.37,2013-05-06 07:37:00,
2013-05-05 23:42:00,36.3,21.7,30.03,East,90,0.0,0.0,55,0.00,CLR,,0.00,WeatherDisplay:10.37,2013-05-06 07:42:00,
2013-05-05 23:47:00,36.3,22.1,30.03,East,90,0.0,0.0,56,0.00,CLR,,0.00,WeatherDisplay:10.37,2013-05-06 07:47:00,
2013-05-05 23:52:00,36.0,22.2,30.03,East,90,0.0,0.0,57,0.00,CLR,,0.00,WeatherDisplay:10.37,2013-05-06 07:52:00,
2013-05-05 23:57:00,35.8,22.0,30.03,East,90,0.0,0.0,57,0.00,CLR,,0.00,WeatherDisplay:10.37,2013-05-06 07:57:00,